Time;durP1;ratioP1;P1;durP2;ratioP2;P2;SDS_P1;SDS_P2;PMS_P1;PMS_P2;Temp;Humidity;BMP_temperature;BMP_pressure;BME280_temperature;BME280_humidity;BME280_pressure;Samples;Min_cycle;Max_cycle;Signal;HPM_P1;HPM_P2
2022/12/10 00:01:42;;;;;;;29.40;13.87;;;;;;;-1.30;100.00;99979.22;4980494;28;20197;-69
2022/12/10 00:04:09;;;;;;;29.90;14.03;;;;;;;-1.29;100.00;99981.81;4977848;28;20288;-69
2022/12/10 00:06:38;;;;;;;32.37;13.27;;;;;;;-1.30;100.00;99987.78;4977413;28;20225;-69
2022/12/10 00:09:08;;;;;;;42.43;15.87;;;;;;;-1.28;100.00;99982.69;4976434;28;20232;-70
2022/12/10 00:11:34;;;;;;;30.27;13.67;;;;;;;-1.27;100.00;99979.28;4974608;28;20213;-69
2022/12/10 00:14:01;;;;;;;29.17;14.30;;;;;;;-1.27;100.00;99979.28;4975752;28;20582;-69
2022/12/10 00:16:30;;;;;;;34.20;13.93;;;;;;;-1.26;100.00;99983.56;4977339;28;20232;-69
2022/12/10 00:18:57;;;;;;;32.57;14.43;;;;;;;-1.25;100.00;99980.13;4979770;28;20558;-70
2022/12/10 00:21:25;;;;;;;28.50;14.13;;;;;;;-1.26;100.00;99973.31;4978536;28;20709;-69
2022/12/10 00:23:54;;;;;;;33.77;14.07;;;;;;;-1.28;100.00;99978.41;4978413;28;20202;-69
2022/12/10 00:26:22;;;;;;;36.13;15.03;;;;;;;-1.25;100.00;99986.13;4981188;28;20624;-70
2022/12/10 00:28:49;;;;;;;36.40;15.37;;;;;;;-1.25;100.00;99975.03;4976567;28;20698;-70
2022/12/10 00:31:18;;;;;;;36.00;15.43;;;;;;;-1.23;100.00;99983.56;4977775;28;20308;-70
2022/12/10 00:33:45;;;;;;;27.33;14.10;;;;;;;-1.25;100.00;99990.38;4975381;28;20678;-70
2022/12/10 00:36:14;;;;;;;39.13;14.43;;;;;;;-1.26;100.00;99984.41;4977251;28;20233;-69
2022/12/10 00:38:41;;;;;;;32.83;15.57;;;;;;;-1.25;100.00;99980.13;4977787;28;20201;-69
2022/12/10 00:41:09;;;;;;;34.60;15.53;;;;;;;-1.26;100.00;99978.44;4969318;28;20206;-69
2022/12/10 00:43:36;;;;;;;35.00;15.30;;;;;;;-1.25;100.00;99983.56;4961941;28;20228;-69
2022/12/10 00:46:03;;;;;;;36.07;15.73;;;;;;;-1.22;100.00;99982.75;4960408;28;20720;-70
2022/12/10 00:48:30;;;;;;;37.60;16.33;;;;;;;-1.23;100.00;99983.56;4977354;28;20228;-70
2022/12/10 00:50:58;;;;;;;29.80;14.97;;;;;;;-1.24;100.00;99976.75;4963331;28;20284;-70
2022/12/10 00:53:25;;;;;;;36.53;15.80;;;;;;;-1.24;100.00;99984.44;4978629;28;20201;-70
2022/12/10 00:55:52;;;;;;;31.13;15.33;;;;;;;-1.25;100.00;99990.38;4974857;28;20236;-68
2022/12/10 00:58:21;;;;;;;29.87;14.77;;;;;;;-1.25;100.00;99987.81;4979896;28;20201;-68
2022/12/10 01:00:48;;;;;;;32.70;14.67;;;;;;;-1.25;100.00;99995.50;4978555;28;20205;-70
2022/12/10 01:03:14;;;;;;;35.83;15.67;;;;;;;-1.25;100.00;99993.81;4978881;28;20206;-69
2022/12/10 01:05:41;;;;;;;31.57;14.53;;;;;;;-1.23;100.00;99994.69;4960049;28;20214;-70
2022/12/10 01:08:07;;;;;;;31.40;14.33;;;;;;;-1.23;100.00;99999.81;4960369;28;20737;-70
2022/12/10 01:10:34;;;;;;;30.60;14.30;;;;;;;-1.23;100.00;99996.34;4977546;28;20572;-69
2022/12/10 01:13:00;;;;;;;31.73;13.70;;;;;;;-1.23;100.00;99997.25;4962777;28;20204;-69
2022/12/10 01:15:28;;;;;;;29.53;13.27;;;;;;;-1.22;100.00;99998.09;4965091;28;20566;-70
2022/12/10 01:17:54;;;;;;;36.67;14.50;;;;;;;-1.25;100.00;99996.38;4963426;28;20193;-70
2022/12/10 01:20:21;;;;;;;32.07;14.00;;;;;;;-1.25;100.00;99991.25;4972378;28;20686;-70
2022/12/10 01:22:48;;;;;;;33.67;14.80;;;;;;;-1.26;100.00;99989.53;4958680;28;20300;-70
2022/12/10 01:25:14;;;;;;;29.97;14.17;;;;;;;-1.25;100.00;100000.59;4977055;28;20214;-70
2022/12/10 01:27:40;;;;;;;30.87;14.30;;;;;;;-1.25;100.00;99996.38;4977858;28;20594;-70
2022/12/10 01:30:08;;;;;;;28.73;13.70;;;;;;;-1.25;100.00;99998.94;4959169;28;20206;-69
2022/12/10 01:32:38;;;;;;;35.87;15.33;;;;;;;-1.26;100.00;99994.63;4955408;28;20222;-70
2022/12/10 01:35:04;;;;;;;37.00;15.17;;;;;;;-1.26;100.00;99997.19;4957222;28;20682;-72
2022/12/10 01:37:31;;;;;;;32.63;14.60;;;;;;;-1.27;100.00;100004.84;4980431;28;20206;-71
2022/12/10 01:39:57;;;;;;;27.10;12.77;;;;;;;-1.27;100.00;100003.13;4959926;28;20202;-72
2022/12/10 01:42:24;;;;;;;32.90;13.73;;;;;;;-1.28;100.00;99998.88;4954105;28;20228;-71
2022/12/10 01:45:01;;;;;;;27.30;13.90;;;;;;;-1.30;100.00;99999.69;4966467;28;20201;-71
2022/12/10 01:47:28;;;;;;;29.53;14.67;;;;;;;-1.28;100.00;100005.72;4960955;28;20721;-72
2022/12/10 01:49:58;;;;;;;34.00;14.23;;;;;;;-1.31;100.00;99998.00;4974495;28;20289;-71
2022/12/10 01:52:25;;;;;;;33.70;14.57;;;;;;;-1.31;100.00;99998.00;4962742;28;20304;-71
2022/12/10 01:54:51;;;;;;;30.23;13.60;;;;;;;-1.33;100.00;100001.38;4979863;28;20432;-71
2022/12/10 01:57:21;;;;;;;29.53;13.07;;;;;;;-1.35;100.00;100003.06;4959606;28;20241;-70
2022/12/10 01:59:51;;;;;;;29.67;12.90;;;;;;;-1.33;100.00;100010.75;4963958;28;20210;-71
2022/12/10 02:02:25;;;;;;;27.37;12.50;;;;;;;-1.32;100.00;99999.66;4976641;28;20212;-71
2022/12/10 02:05:03;;;;;;;28.80;13.03;;;;;;;-1.34;100.00;99994.56;4975383;28;20285;-71
2022/12/10 02:07:40;;;;;;;29.30;13.00;;;;;;;-1.35;100.00;99994.53;4962319;28;20228;-71
2022/12/10 02:10:12;;;;;;;27.87;12.70;;;;;;;-1.34;100.00;99998.78;4979792;28;20749;-72
2022/12/10 02:12:48;;;;;;;29.47;13.83;;;;;;;-1.37;100.00;99994.50;4958955;28;20210;-70
2022/12/10 02:15:17;;;;;;;27.83;13.57;;;;;;;-1.35;100.00;99995.38;4974444;28;20201;-71
2022/12/10 02:17:46;;;;;;;28.80;12.53;;;;;;;-1.36;100.00;99987.69;4958945;28;20221;-71
2022/12/10 02:20:19;;;;;;;33.23;13.33;;;;;;;-1.39;100.00;99987.66;4973442;28;20208;-72
2022/12/10 02:22:50;;;;;;;27.10;12.87;;;;;;;-1.39;100.00;99985.09;4961920;28;20212;-71
2022/12/10 02:25:21;;;;;;;26.90;12.97;;;;;;;-1.40;100.00;99993.63;4958187;28;20284;-72
2022/12/10 02:27:55;;;;;;;29.70;12.30;;;;;;;-1.41;100.00;99995.28;4961451;28;20222;-72
2022/12/10 02:30:23;;;;;;;28.13;13.70;;;;;;;-1.43;100.00;99993.56;4981518;28;20205;-72
2022/12/10 02:32:51;;;;;;;24.77;12.63;;;;;;;-1.42;100.00;99992.75;4958954;28;20206;-72
2022/12/10 02:35:23;;;;;;;26.43;12.57;;;;;;;-1.44;100.00;99996.97;4961048;28;20204;-72
2022/12/10 02:37:56;;;;;;;29.73;13.00;;;;;;;-1.44;100.00;99996.97;4970915;28;20481;-71
2022/12/10 02:40:26;;;;;;;24.30;11.43;;;;;;;-1.43;100.00;99999.53;4961942;28;20305;-72
2022/12/10 02:42:54;;;;;;;31.80;12.57;;;;;;;-1.46;100.00;100002.06;4960395;28;20482;-72
2022/12/10 02:45:27;;;;;;;26.97;12.73;;;;;;;-1.45;100.00;99993.56;4980793;28;20205;-72
2022/12/10 02:47:57;;;;;;;26.07;11.73;;;;;;;-1.44;100.00;100000.41;4976288;28;20712;-71
2022/12/10 02:50:25;;;;;;;24.80;11.63;;;;;;;-1.45;100.00;100000.38;4960576;28;20197;-72
2022/12/10 02:52:52;;;;;;;26.07;12.77;;;;;;;-1.46;100.00;99996.09;4958374;28;20284;-72
2022/12/10 02:55:20;;;;;;;20.20;10.50;;;;;;;-1.47;100.00;99997.78;4963786;28;20209;-71
2022/12/10 02:58:03;;;;;;;23.03;11.37;;;;;;;-1.48;100.00;100001.19;4957959;28;20704;-72
2022/12/10 03:00:34;;;;;;;20.93;11.00;;;;;;;-1.49;100.00;99998.63;4960423;28;20264;-71
2022/12/10 03:03:22;;;;;;;21.63;11.47;;;;;;;-1.48;100.00;99997.78;4960010;28;20209;-71
2022/12/10 03:05:59;;;;;;;23.83;12.60;;;;;;;-1.50;100.00;99995.19;4962030;28;20232;-71
2022/12/10 03:08:29;;;;;;;23.40;11.63;;;;;;;-1.52;100.00;100002.84;4975624;28;20263;-71
2022/12/10 03:11:01;;;;;;;21.33;10.53;;;;;;;-1.51;100.00;100001.16;4976644;28;20303;-71
2022/12/10 03:13:32;;;;;;;28.00;12.00;;;;;;;-1.53;100.00;99995.13;4980426;28;20201;-71
2022/12/10 03:16:03;;;;;;;21.87;10.37;;;;;;;-1.55;100.00;99995.16;4978310;28;20255;-71
2022/12/10 03:18:31;;;;;;;22.43;10.90;;;;;;;-1.55;100.00;100001.94;4982933;28;20208;-72
2022/12/10 03:21:00;;;;;;;23.60;11.13;;;;;;;-1.54;100.00;100004.53;4980032;28;20421;-71
2022/12/10 03:23:29;;;;;;;25.07;11.47;;;;;;;-1.54;100.00;100008.78;4979663;28;20725;-71
2022/12/10 03:25:55;;;;;;;18.40;10.40;;;;;;;-1.55;100.00;99999.38;4978516;28;20440;-70
2022/12/10 03:28:24;;;;;;;24.10;11.57;;;;;;;-1.56;100.00;100002.78;4982750;28;20243;-71
2022/12/10 03:30:52;;;;;;;20.70;10.53;;;;;;;-1.56;100.00;100006.19;4982118;28;20667;-71
2022/12/10 03:33:20;;;;;;;19.37;9.53;;;;;;;-1.56;100.00;100002.78;4981562;28;20198;-71
2022/12/10 03:35:47;;;;;;;19.27;10.33;;;;;;;-1.55;100.00;99999.38;4983750;28;20225;-71
2022/12/10 03:38:15;;;;;;;20.90;10.60;;;;;;;-1.58;100.00;100007.88;4965762;28;20659;-72
2022/12/10 03:40:41;;;;;;;18.57;9.53;;;;;;;-1.59;100.00;100007.84;4983499;28;20519;-71
2022/12/10 03:43:07;;;;;;;20.20;9.83;;;;;;;-1.59;100.00;100008.72;4983615;28;20209;-72
2022/12/10 03:45:34;;;;;;;19.07;10.30;;;;;;;-1.59;100.00;100011.28;4983302;28;20206;-72
2022/12/10 03:48:00;;;;;;;18.60;10.07;;;;;;;-1.59;100.00;100010.41;4984415;28;20212;-72
2022/12/10 03:50:28;;;;;;;22.53;10.30;;;;;;;-1.60;100.00;100007.00;4980493;28;20217;-70
2022/12/10 03:52:54;;;;;;;21.03;10.53;;;;;;;-1.60;100.00;100001.00;4981619;28;20756;-71
2022/12/10 03:55:20;;;;;;;23.40;11.63;;;;;;;-1.60;100.00;100003.56;4984694;28;20201;-72
2022/12/10 03:57:48;;;;;;;18.50;10.47;;;;;;;-1.62;100.00;100013.81;4978703;28;20217;-72
2022/12/10 04:00:15;;;;;;;19.67;9.40;;;;;;;-1.62;100.00;100003.56;4982908;28;20205;-71
2022/12/10 04:02:41;;;;;;;18.30;9.70;;;;;;;-1.62;100.00;100011.25;4984040;28;20204;-71
2022/12/10 04:05:09;;;;;;;18.57;9.17;;;;;;;-1.61;100.00;100004.44;4982799;28;20198;-72
2022/12/10 04:07:37;;;;;;;18.77;10.73;;;;;;;-1.63;100.00;100021.44;4980557;28;20308;-72
2022/12/10 04:10:04;;;;;;;22.13;10.67;;;;;;;-1.66;100.00;100017.13;4982192;28;20497;-72
2022/12/10 04:12:30;;;;;;;18.20;9.70;;;;;;;-1.66;100.00;100018.84;4985075;28;20209;-72
2022/12/10 04:17:40;;;;;;;19.87;9.73;;;;;;;-1.65;100.00;100020.53;4981295;28;20249;-72
2022/12/10 04:26:51;;;;;;;18.60;9.03;;;;;;;-1.65;100.00;100020.53;4979112;28;20194;-72
2022/12/10 04:28:24;;;;;;;18.10;9.10;;;;;;;-1.61;100.00;100028.28;4978816;28;20275;-71
2022/12/10 04:30:50;;;;;;;20.60;10.40;;;;;;;-1.64;100.00;100027.38;4968426;28;20197;-72
2022/12/10 04:33:16;;;;;;;15.10;8.53;;;;;;;-1.63;100.00;100034.22;4978348;28;20209;-72
2022/12/10 04:35:43;;;;;;;21.67;10.17;;;;;;;-1.66;100.00;100023.94;4978981;28;20226;-72
2022/12/10 04:38:11;;;;;;;19.80;10.47;;;;;;;-1.66;100.00;100023.94;4980223;28;20205;-71
2022/12/10 04:40:37;;;;;;;21.80;9.83;;;;;;;-1.67;100.00;100020.56;4979013;28;20630;-72
2022/12/10 04:43:03;;;;;;;14.40;8.40;;;;;;;-1.67;100.00;100027.34;4983121;28;20198;-71
2022/12/10 04:45:30;;;;;;;19.40;9.97;;;;;;;-1.69;100.00;100019.63;4980119;28;20197;-71
2022/12/10 04:47:56;;;;;;;17.10;9.37;;;;;;;-1.71;100.00;100029.00;4977953;28;20202;-71
2022/12/10 04:50:23;;;;;;;15.20;8.70;;;;;;;-1.69;100.00;100029.88;4979804;28;20505;-71
2022/12/10 04:52:50;;;;;;;14.97;8.77;;;;;;;-1.69;100.00;100024.75;4981495;28;20207;-72
2022/12/10 04:55:17;;;;;;;18.97;9.07;;;;;;;-1.69;100.00;100029.03;4981518;28;20458;-72
2022/12/10 04:57:44;;;;;;;18.00;8.90;;;;;;;-1.68;100.00;100028.19;5022943;23;20701;-74
2022/12/10 05:00:12;;;;;;;18.83;10.03;;;;;;;-1.68;100.00;100018.81;5019509;28;20509;-74
2022/12/10 05:02:38;;;;;;;15.93;8.13;;;;;;;-1.69;100.00;100024.75;5020206;28;20257;-74
2022/12/10 05:05:05;;;;;;;18.03;9.33;;;;;;;-1.68;100.00;100025.63;5020973;28;20235;-74
2022/12/10 05:07:33;;;;;;;16.97;9.43;;;;;;;-1.68;100.00;100029.03;5009091;28;20220;-73
2022/12/10 05:09:59;;;;;;;15.77;8.83;;;;;;;-1.66;100.00;100035.03;5001568;28;20216;-73
2022/12/10 05:12:27;;;;;;;17.73;9.23;;;;;;;-1.67;100.00;100033.34;5000275;28;20200;-74
2022/12/10 05:14:54;;;;;;;17.77;9.03;;;;;;;-1.68;100.00;100025.63;4999188;28;20291;-74
2022/12/10 05:17:20;;;;;;;15.93;8.70;;;;;;;-1.66;100.00;100036.75;5004908;28;20557;-74
2022/12/10 05:19:46;;;;;;;18.23;9.47;;;;;;;-1.68;100.00;100036.72;5002809;28;20201;-73
2022/12/10 05:24:57;;;;;;;18.93;8.73;;;;;;;-1.70;100.00;100030.72;4999685;28;20323;-73
2022/12/10 05:27:23;;;;;;;20.13;9.90;;;;;;;-1.69;100.00;100040.09;5003023;28;20227;-74
2022/12/10 05:29:51;;;;;;;15.60;8.97;;;;;;;-1.70;100.00;100033.28;4997576;28;20212;-74
2022/12/10 05:32:17;;;;;;;18.57;8.70;;;;;;;-1.70;100.00;100029.88;4999594;28;20213;-74
2022/12/10 05:34:44;;;;;;;18.60;9.50;;;;;;;-1.71;100.00;100039.22;5001188;28;20213;-74
2022/12/10 05:37:10;;;;;;;16.87;8.07;;;;;;;-1.73;100.00;100044.31;5003035;28;20234;-74
2022/12/10 05:39:36;;;;;;;20.27;8.93;;;;;;;-1.74;100.00;100045.16;5003927;28;20197;-74
2022/12/10 05:42:04;;;;;;;16.73;8.40;;;;;;;-1.78;100.00;100045.94;5002538;28;20201;-74
2022/12/10 05:44:30;;;;;;;15.70;8.77;;;;;;;-1.77;100.00;100039.16;5003095;28;20228;-73
2022/12/10 05:46:58;;;;;;;15.20;8.07;;;;;;;-1.74;100.00;100045.16;5000606;28;20235;-74
2022/12/10 05:49:24;;;;;;;15.80;8.70;;;;;;;-1.73;100.00;100040.91;4999284;28;20208;-74
2022/12/10 05:51:51;;;;;;;21.17;9.50;;;;;;;-1.75;100.00;100045.97;4998730;28;20209;-73
2022/12/10 05:54:17;;;;;;;16.80;8.77;;;;;;;-1.77;100.00;100042.56;5000246;28;20204;-74
2022/12/10 05:56:44;;;;;;;17.83;8.30;;;;;;;-1.78;100.00;100039.97;5003273;28;20239;-74
2022/12/10 05:59:10;;;;;;;15.77;8.40;;;;;;;-1.77;100.00;100036.59;5002015;28;20199;-74
2022/12/10 06:01:36;;;;;;;18.33;8.57;;;;;;;-1.76;100.00;100041.72;5001844;28;20204;-74
2022/12/10 06:04:05;;;;;;;14.93;8.60;;;;;;;-1.80;100.00;100037.38;4996768;28;20205;-74
2022/12/10 06:06:34;;;;;;;17.77;8.80;;;;;;;-1.80;100.00;100046.75;5004193;28;20239;-74
2022/12/10 06:09:01;;;;;;;16.70;8.57;;;;;;;-1.80;100.00;100037.38;4997072;28;20593;-74
2022/12/10 06:11:28;;;;;;;15.07;8.40;;;;;;;-1.79;100.00;100045.94;4998259;28;20208;-74
2022/12/10 06:13:56;;;;;;;18.23;8.57;;;;;;;-1.80;100.00;100047.59;4997362;28;20236;-74
2022/12/10 06:16:23;;;;;;;16.83;8.83;;;;;;;-1.80;100.00;100045.06;4998666;28;20665;-74
2022/12/10 06:18:50;;;;;;;16.20;8.80;;;;;;;-1.78;100.00;100052.75;4992608;28;20203;-73
2022/12/10 06:21:19;;;;;;;19.77;8.63;;;;;;;-1.81;100.00;100048.47;4999780;28;20673;-74
2022/12/10 06:23:46;;;;;;;14.60;8.50;;;;;;;-1.81;100.00;100051.03;4992884;28;20669;-74
2022/12/10 06:26:14;;;;;;;17.63;8.40;;;;;;;-1.82;100.00;100049.28;5004184;28;20228;-74
2022/12/10 06:28:41;;;;;;;15.17;7.57;;;;;;;-1.81;100.00;100052.69;4997216;28;20207;-73
2022/12/10 06:31:08;;;;;;;13.53;7.57;;;;;;;-1.83;100.00;100050.16;4997979;28;20211;-73
2022/12/10 06:33:34;;;;;;;13.67;7.77;;;;;;;-1.84;100.00;100058.63;4993039;28;20246;-74
2022/12/10 06:36:04;;;;;;;16.33;8.87;;;;;;;-1.84;100.00;100058.63;4994367;28;20207;-74
2022/12/10 06:38:32;;;;;;;15.30;7.77;;;;;;;-1.82;100.00;100062.06;4997663;28;20562;-73
2022/12/10 06:40:58;;;;;;;16.20;7.93;;;;;;;-1.83;100.00;100072.25;4987349;28;20189;-74
2022/12/10 06:43:24;;;;;;;14.37;7.80;;;;;;;-1.84;100.00;100061.19;5001142;28;20467;-74
2022/12/10 06:45:51;;;;;;;15.23;7.27;;;;;;;-1.83;100.00;100068.03;4998784;28;20518;-74
2022/12/10 06:48:17;;;;;;;20.53;8.67;;;;;;;-1.85;100.00;100071.38;5000296;28;20204;-74
2022/12/10 06:50:43;;;;;;;14.90;8.03;;;;;;;-1.85;100.00;100066.28;4997754;28;20212;-74
2022/12/10 06:53:10;;;;;;;14.90;8.03;;;;;;;-1.87;100.00;100066.25;5000480;28;20200;-73
2022/12/10 06:55:38;;;;;;;14.17;7.97;;;;;;;-1.87;100.00;100070.50;5001756;28;20204;-74
2022/12/10 06:58:05;;;;;;;15.23;8.53;;;;;;;-1.88;100.00;100072.22;5002091;28;20486;-74
2022/12/10 07:00:32;;;;;;;15.37;8.20;;;;;;;-1.87;100.00;100070.50;4995420;28;20208;-73
2022/12/10 07:02:58;;;;;;;15.27;8.53;;;;;;;-1.87;100.00;100070.50;5000153;28;20657;-74
2022/12/10 07:05:24;;;;;;;15.33;7.77;;;;;;;-1.87;100.00;100067.94;4985334;28;20208;-74
2022/12/10 07:07:51;;;;;;;15.10;9.00;;;;;;;-1.87;100.00;100073.06;4994387;28;20220;-74
2022/12/10 07:10:17;;;;;;;15.20;8.00;;;;;;;-1.89;100.00;100072.19;4999633;28;20232;-74
2022/12/10 07:12:45;;;;;;;17.80;8.50;;;;;;;-1.91;100.00;100070.44;5001407;28;20204;-74
2022/12/10 07:15:11;;;;;;;15.53;8.33;;;;;;;-1.90;100.00;100068.75;5000796;28;20197;-74
2022/12/10 07:17:38;;;;;;;16.97;8.10;;;;;;;-1.88;100.00;100076.44;5000301;28;20224;-73
2022/12/10 07:20:06;;;;;;;17.97;9.80;;;;;;;-1.93;100.00;100071.28;4997049;28;20205;-72
2022/12/10 07:22:33;;;;;;;18.10;8.83;;;;;;;-1.91;100.00;100070.44;4995869;28;20617;-74
2022/12/10 07:24:59;;;;;;;15.03;8.60;;;;;;;-1.93;100.00;100072.13;4997477;28;20205;-73
2022/12/10 07:27:26;;;;;;;18.23;9.23;;;;;;;-1.96;100.00;100079.72;5000470;28;20220;-74
2022/12/10 07:29:54;;;;;;;12.33;8.23;;;;;;;-1.96;100.00;100081.44;4998185;28;21759;-73
2022/12/10 07:32:20;;;;;;;17.50;9.10;;;;;;;-1.96;100.00;100073.78;5002880;28;20207;-74
2022/12/10 07:34:46;;;;;;;15.53;8.30;;;;;;;-1.98;100.00;100083.97;4999336;28;20199;-73
2022/12/10 07:37:13;;;;;;;14.57;8.67;;;;;;;-1.98;100.00;100080.56;5001792;28;20224;-74
2022/12/10 07:39:39;;;;;;;16.30;8.77;;;;;;;-1.98;100.00;100078.00;5000858;28;20662;-74
2022/12/10 07:42:05;;;;;;;16.47;9.07;;;;;;;-1.99;100.00;100078.81;5001436;28;20255;-74
2022/12/10 07:44:32;;;;;;;15.73;8.07;;;;;;;-2.00;100.00;100087.34;5002273;28;20807;-74
2022/12/10 07:47:00;;;;;;;14.70;8.13;;;;;;;-2.01;100.00;100089.03;4994569;28;20606;-73
2022/12/10 07:49:26;;;;;;;13.97;7.80;;;;;;;-1.99;100.00;100095.00;4997737;28;20719;-73
2022/12/10 07:51:53;;;;;;;15.57;8.37;;;;;;;-1.99;100.00;100097.56;4999085;28;20578;-74
2022/12/10 07:54:20;;;;;;;16.17;8.33;;;;;;;-2.00;100.00;100088.19;4996826;28;20202;-74
2022/12/10 07:56:46;;;;;;;16.87;8.47;;;;;;;-2.04;100.00;100094.09;5002006;28;20228;-74
2022/12/10 07:59:13;;;;;;;16.60;8.83;;;;;;;-2.00;100.00;100097.56;5003228;28;20601;-73
2022/12/10 08:01:39;;;;;;;18.33;8.83;;;;;;;-2.01;100.00;100104.34;5000663;28;20205;-74
2022/12/10 08:04:07;;;;;;;18.10;9.37;;;;;;;-2.05;100.00;100097.47;4997192;28;20726;-73
2022/12/10 08:06:34;;;;;;;15.40;8.10;;;;;;;-2.00;100.00;100100.97;4997675;28;20221;-73
2022/12/10 08:09:01;;;;;;;16.37;8.43;;;;;;;-2.01;100.00;100101.78;5003420;28;20200;-74
2022/12/10 08:11:28;;;;;;;18.00;8.83;;;;;;;-2.01;100.00;100098.38;5003833;28;20709;-74
2022/12/10 08:13:56;;;;;;;20.77;9.43;;;;;;;-2.03;100.00;100110.28;5001866;28;20207;-74
2022/12/10 08:16:25;;;;;;;19.43;9.10;;;;;;;-2.02;100.00;100101.78;5001853;28;20224;-74
2022/12/10 08:18:51;;;;;;;17.40;9.00;;;;;;;-2.02;100.00;100110.31;4992827;28;21614;-74
2022/12/10 08:21:21;;;;;;;20.37;9.23;;;;;;;-2.01;100.00;100103.50;4998334;28;20276;-74
2022/12/10 08:23:48;;;;;;;16.13;8.57;;;;;;;-2.02;100.00;100109.44;4995364;28;20587;-74
2022/12/10 08:26:16;;;;;;;16.33;8.67;;;;;;;-2.03;100.00;100107.72;5000663;28;20730;-74
2022/12/10 08:28:43;;;;;;;19.50;9.00;;;;;;;-2.00;100.00;100115.44;5001372;28;20908;-73
2022/12/10 08:31:12;;;;;;;22.43;9.37;;;;;;;-2.02;100.00;100114.53;5000416;28;20225;-74
2022/12/10 08:33:39;;;;;;;15.07;8.67;;;;;;;-1.98;100.00;100116.34;5000737;28;20228;-73
2022/12/10 08:36:08;;;;;;;17.37;8.57;;;;;;;-1.98;100.00;100118.88;4998298;28;20196;-74
2022/12/10 08:38:36;;;;;;;15.80;8.93;;;;;;;-1.98;100.00;100122.28;4994727;28;20660;-73
2022/12/10 08:41:07;;;;;;;18.63;9.20;;;;;;;-2.00;100.00;100113.75;5000492;28;20209;-73
2022/12/10 08:43:33;;;;;;;18.77;9.30;;;;;;;-2.00;100.00;100118.88;5005155;28;20246;-73
2022/12/10 08:46:00;;;;;;;16.90;9.13;;;;;;;-1.98;100.00;100129.09;4996894;28;20276;-73
2022/12/10 08:48:26;;;;;;;16.27;8.37;;;;;;;-2.01;100.00;100124.78;4997233;28;20244;-72
2022/12/10 08:50:53;;;;;;;17.60;9.13;;;;;;;-1.99;100.00;100129.94;4998673;28;20244;-74
2022/12/10 08:53:19;;;;;;;19.67;10.07;;;;;;;-1.99;100.00;100125.66;4992593;28;20234;-72
2022/12/10 08:55:50;;;;;;;22.13;9.40;;;;;;;-1.98;100.00;100121.44;5001122;28;20233;-72
2022/12/10 08:58:16;;;;;;;20.80;9.90;;;;;;;-1.98;100.00;100124.84;4997069;28;20219;-73
2022/12/10 09:00:43;;;;;;;17.07;9.17;;;;;;;-1.98;100.00;100126.56;4999454;28;20208;-73
2022/12/10 09:03:09;;;;;;;19.23;9.60;;;;;;;-1.92;100.00;100122.41;5001577;28;20247;-73
2022/12/10 09:05:36;;;;;;;18.57;9.50;;;;;;;-1.92;100.00;100122.41;5004999;28;20201;-73
2022/12/10 09:08:02;;;;;;;21.17;9.80;;;;;;;-1.92;100.00;100129.19;4997281;28;20327;-72
2022/12/10 09:10:29;;;;;;;19.47;8.93;;;;;;;-1.92;100.00;100130.09;5001150;28;20768;-73
2022/12/10 09:12:56;;;;;;;24.60;10.17;;;;;;;-1.89;100.00;100131.81;5003057;28;20220;-74
2022/12/10 09:15:23;;;;;;;15.77;8.63;;;;;;;-1.87;100.00;100135.25;4994685;28;20197;-73
2022/12/10 09:17:49;;;;;;;20.10;10.10;;;;;;;-1.91;100.00;100136.03;5000604;28;20259;-74
2022/12/10 09:20:16;;;;;;;20.83;9.47;;;;;;;-1.88;100.00;100136.09;4997945;28;20211;-74
2022/12/10 09:22:42;;;;;;;18.97;9.73;;;;;;;-1.86;100.00;100139.53;4995747;28;20231;-74
2022/12/10 09:25:10;;;;;;;21.23;10.10;;;;;;;-1.88;100.00;100140.31;5002053;28;20205;-73
2022/12/10 09:27:37;;;;;;;16.83;9.97;;;;;;;-1.92;100.00;100140.31;5006238;28;20247;-73
2022/12/10 09:30:06;;;;;;;18.03;9.43;;;;;;;-1.92;100.00;100134.31;5003924;28;20635;-73
2022/12/10 09:32:32;;;;;;;18.80;10.23;;;;;;;-1.86;100.00;100139.53;5000005;28;20292;-74
2022/12/10 09:34:58;;;;;;;19.03;10.57;;;;;;;-1.82;100.00;100135.34;5002290;28;20627;-72
2022/12/10 09:37:25;;;;;;;22.13;10.97;;;;;;;-1.83;100.00;100131.03;4999636;28;20225;-73
2022/12/10 09:39:51;;;;;;;19.80;9.87;;;;;;;-1.83;100.00;100129.38;5001716;28;20278;-73
2022/12/10 09:42:30;;;;;;;18.47;10.73;;;;;;;-1.81;100.00;100124.25;4999769;28;20685;-74
2022/12/10 09:45:03;;;;;;;22.43;9.73;;;;;;;-1.80;100.00;100124.28;5000771;28;20196;-73
2022/12/10 09:47:36;;;;;;;20.80;10.70;;;;;;;-1.82;100.00;100118.28;4997418;28;20231;-73
2022/12/10 09:50:13;;;;;;;21.70;10.97;;;;;;;-1.78;100.00;100120.06;4997922;28;20211;-74
2022/12/10 09:52:43;;;;;;;20.77;11.00;;;;;;;-1.75;100.00;100116.69;4999650;28;20530;-73
2022/12/10 09:55:15;;;;;;;28.00;14.07;;;;;;;-1.75;100.00;100115.00;4999666;28;20681;-72
2022/12/10 09:57:44;;;;;;;27.70;12.27;;;;;;;-1.76;100.00;100109.84;5000080;28;20689;-74
2022/12/10 10:00:19;;;;;;;34.50;16.40;;;;;;;-1.72;100.00;100111.66;5004079;28;20271;-73
2022/12/10 10:02:48;;;;;;;26.43;12.30;;;;;;;-1.75;100.00;100112.44;4994271;28;20231;-73
2022/12/10 10:05:23;;;;;;;42.17;16.60;;;;;;;-1.70;100.00;100106.56;4997280;28;20585;-73
2022/12/10 10:07:54;;;;;;;23.87;13.10;;;;;;;-1.70;100.00;100106.56;4997688;28;20229;-72
2022/12/10 10:10:25;;;;;;;26.17;13.57;;;;;;;-1.68;100.00;100118.50;4998878;28;20781;-73
2022/12/10 10:12:55;;;;;;;25.60;13.40;;;;;;;-1.68;100.00;100115.97;4999400;28;20210;-72
2022/12/10 10:15:29;;;;;;;21.73;12.50;;;;;;;-1.63;100.00;100110.94;4999993;28;20560;-73
2022/12/10 10:18:00;;;;;;;25.57;14.10;;;;;;;-1.58;100.00;100114.41;5000497;28;20223;-74
2022/12/10 10:20:26;;;;;;;23.93;12.53;;;;;;;-1.60;100.00;100109.28;4997220;28;20357;-72
2022/12/10 10:22:56;;;;;;;20.43;10.57;;;;;;;-1.58;100.00;100109.31;4999849;28;20247;-73
2022/12/10 10:25:23;;;;;;;26.47;13.00;;;;;;;-1.55;100.00;100111.88;4996694;28;21808;-73
2022/12/10 10:27:49;;;;;;;23.43;11.27;;;;;;;-1.46;100.00;100111.16;5000893;28;20224;-73
2022/12/10 10:30:18;;;;;;;24.80;12.83;;;;;;;-1.47;100.00;100112.88;4997702;28;20212;-73
2022/12/10 10:32:50;;;;;;;23.83;11.47;;;;;;;-1.52;100.00;100110.22;4996358;28;20200;-72
2022/12/10 10:35:29;;;;;;;24.60;11.63;;;;;;;-1.49;100.00;100114.53;4997797;28;20571;-73
2022/12/10 10:38:07;;;;;;;23.83;12.37;;;;;;;-1.49;100.00;100112.00;4997831;28;20225;-73
2022/12/10 10:40:41;;;;;;;22.67;11.10;;;;;;;-1.47;100.00;100112.88;4999660;28;20656;-73
2022/12/10 10:43:16;;;;;;;21.17;10.90;;;;;;;-1.52;100.00;100107.66;4994529;28;20197;-73
2022/12/10 10:45:48;;;;;;;27.67;12.77;;;;;;;-1.46;100.00;100109.47;4998723;28;20278;-72
2022/12/10 10:48:17;;;;;;;24.87;12.40;;;;;;;-1.46;100.00;100106.94;5003213;28;20225;-73
2022/12/10 10:50:47;;;;;;;28.67;13.90;;;;;;;-1.47;100.00;100105.19;4996235;28;20224;-73
2022/12/10 10:53:29;;;;;;;25.83;13.10;;;;;;;-1.45;100.00;100103.50;4998455;28;20200;-74
2022/12/10 10:56:00;;;;;;;28.77;12.50;;;;;;;-1.45;100.00;100100.97;4997528;28;20211;-73
2022/12/10 10:58:27;;;;;;;27.47;12.90;;;;;;;-1.41;100.00;100100.16;4996900;23;20243;-70
2022/12/10 11:00:59;;;;;;;25.67;13.70;;;;;;;-1.36;100.00;100100.22;4978099;28;20213;-71
2022/12/10 11:03:28;;;;;;;24.03;12.30;;;;;;;-1.41;100.00;100097.59;4982245;28;20205;-72
2022/12/10 11:05:57;;;;;;;25.03;12.23;;;;;;;-1.41;100.00;100101.84;4978682;28;20206;-72
2022/12/10 11:08:28;;;;;;;23.83;12.13;;;;;;;-1.38;100.00;100094.25;4988923;28;20232;-71
2022/12/10 11:11:01;;;;;;;28.57;13.03;;;;;;;-1.36;100.00;100095.97;4990450;28;20217;-73
2022/12/10 11:13:30;;;;;;;33.77;15.43;;;;;;;-1.36;100.00;100090.00;4990245;28;20224;-72
2022/12/10 11:16:00;;;;;;;27.87;13.87;;;;;;;-1.31;100.00;100093.47;4989020;28;20513;-73
2022/12/10 11:18:32;;;;;;;25.23;13.03;;;;;;;-1.35;100.00;100086.63;4985025;28;20228;-71
2022/12/10 11:21:03;;;;;;;28.67;13.13;;;;;;;-1.35;100.00;100099.41;4969386;28;20197;-73
2022/12/10 11:23:32;;;;;;;28.20;13.30;;;;;;;-1.29;100.00;100090.94;4986553;28;20204;-71